createdAt,value
2022-09-03T00:01:50.909Z,101028.78
2022-09-03T00:06:07.780Z,101024.84
2022-09-03T00:10:19.613Z,101023.59
2022-09-03T00:14:58.158Z,101011.56
2022-09-03T00:19:03.206Z,101008.84
2022-09-03T00:23:07.511Z,101006.97
2022-09-03T00:27:16.329Z,101014.03
2022-09-03T00:31:22.077Z,101005.09
2022-09-03T00:35:37.659Z,101004.06
2022-09-03T00:39:39.384Z,101000.28
2022-09-03T00:43:56.255Z,101004.66
2022-09-03T00:48:10.352Z,101008.19
2022-09-03T00:52:40.180Z,101005.06
2022-09-03T00:56:59.408Z,101009.84
2022-09-03T01:01:10.710Z,101008.59
2022-09-03T01:05:41.130Z,101006.50
2022-09-03T01:10:06.075Z,101004.41
2022-09-03T01:14:30.585Z,101008.34
2022-09-03T01:18:53.084Z,101007.09
2022-09-03T01:23:09.760Z,101003.75
2022-09-03T01:27:43.955Z,101013.31
2022-09-03T01:32:11.941Z,101015.38
2022-09-03T01:36:44.255Z,101017.19
2022-09-03T01:41:29.306Z,101015.94
2022-09-03T01:45:51.049Z,101010.13
2022-09-03T01:50:05.042Z,101015.09
2022-09-03T01:54:21.153Z,101011.97
2022-09-03T01:58:32.333Z,101007.16
2022-09-03T02:02:35.501Z,101013.38
2022-09-03T02:06:37.970Z,101013.44
2022-09-03T02:10:47.821Z,101011.09
2022-09-03T02:14:49.558Z,101000.53
2022-09-03T02:18:56.143Z,101004.84
2022-09-03T02:22:59.081Z,100995.91
2022-09-03T02:27:00.934Z,101002.09
2022-09-03T02:31:02.948Z,100993.38
2022-09-03T02:35:04.933Z,100990.06
2022-09-03T02:39:06.917Z,100992.50
2022-09-03T02:43:14.722Z,100985.47
2022-09-03T02:47:16.360Z,100983.16
2022-09-03T02:51:17.954Z,100994.81
2022-09-03T02:55:20.358Z,100987.94
2022-09-03T02:59:22.773Z,100991.25
2022-09-03T03:03:25.006Z,100992.50
2022-09-03T03:07:30.118Z,100988.72
2022-09-03T03:11:31.963Z,100984.75
2022-09-03T03:15:33.662Z,100990.38
2022-09-03T03:19:35.342Z,100989.13
2022-09-03T03:23:38.721Z,100975.63
2022-09-03T03:27:41.822Z,100982.84
2022-09-03T03:31:44.021Z,100978.72
2022-09-03T03:35:45.730Z,100977.88
2022-09-03T03:39:47.457Z,100979.16
2022-09-03T03:43:54.955Z,100986.19
2022-09-03T03:47:59.516Z,100984.97
2022-09-03T03:52:03.199Z,100982.47
2022-09-03T03:56:10.233Z,100989.53
2022-09-03T04:00:12.545Z,100979.97
2022-09-03T04:04:17.227Z,100989.28
2022-09-03T04:08:18.864Z,100980.75
2022-09-03T04:12:20.556Z,100986.09
2022-09-03T04:16:25.740Z,100984.84
2022-09-03T04:20:27.378Z,100987.34
2022-09-03T04:24:29.023Z,100985.66
2022-09-03T04:28:30.971Z,100975.25
2022-09-03T04:32:50.860Z,100985.53
2022-09-03T04:36:54.437Z,100983.38
2022-09-03T04:40:56.139Z,100985.41
2022-09-03T04:44:57.824Z,100982.63
2022-09-03T04:48:59.770Z,100982.38
2022-09-03T04:53:07.568Z,100977.38
2022-09-03T04:57:10.450Z,100977.38
2022-09-03T05:01:17.509Z,100972.00
2022-09-03T05:05:19.816Z,100970.78
2022-09-03T05:09:21.798Z,100976.78
2022-09-03T05:13:23.467Z,100975.19
2022-09-03T05:17:25.310Z,100978.97
2022-09-03T05:21:28.921Z,100983.78
2022-09-03T05:25:33.810Z,100978.00
2022-09-03T05:29:35.414Z,100982.22
2022-09-03T05:33:59.007Z,100975.66
2022-09-03T05:38:00.842Z,100985.66
2022-09-03T05:42:02.613Z,100984.44
2022-09-03T05:46:09.845Z,100985.09
2022-09-03T05:50:11.490Z,100986.63
2022-09-03T05:54:13.147Z,100980.63
2022-09-03T05:58:16.129Z,100987.50
2022-09-03T06:02:19.839Z,100985.03
2022-09-03T06:06:28.504Z,100991.69
2022-09-03T06:10:40.245Z,100985.72
2022-09-03T06:14:42.569Z,100988.00
2022-09-03T06:18:44.290Z,100991.78
2022-09-03T06:22:52.924Z,100995.34
2022-09-03T06:26:54.637Z,100997.69
2022-09-03T06:30:59.115Z,100995.00
2022-09-03T06:35:00.709Z,100994.00
2022-09-03T06:39:02.380Z,101000.03
2022-09-03T06:43:04.468Z,101001.50
2022-09-03T06:47:06.126Z,101000.28
2022-09-03T06:51:13.528Z,100999.06
2022-09-03T06:55:15.394Z,101004.03
2022-09-03T06:59:17.065Z,100993.88
2022-09-03T07:03:21.264Z,101001.78
2022-09-03T07:07:22.877Z,101009.88
2022-09-03T07:11:26.994Z,101014.44
2022-09-03T07:15:28.613Z,101011.97
2022-09-03T07:19:30.197Z,101014.47
2022-09-03T07:23:33.097Z,101010.28
2022-09-03T07:27:35.475Z,101017.75
2022-09-03T07:31:40.031Z,101019.41
2022-09-03T07:35:41.929Z,101031.66
2022-09-03T07:39:43.906Z,101024.97
2022-09-03T07:43:47.170Z,101021.00
2022-09-03T07:47:49.958Z,101025.13
2022-09-03T07:51:54.231Z,101028.22
2022-09-03T07:56:10.857Z,101018.88
2022-09-03T08:00:13.366Z,101032.16
2022-09-03T08:04:14.987Z,101031.91
2022-09-03T08:08:17.895Z,101033.28
2022-09-03T08:12:19.617Z,101034.09
2022-09-03T08:16:21.338Z,101042.19
2022-09-03T08:20:23.087Z,101041.09
2022-09-03T08:24:26.331Z,101050.25
2022-09-03T08:28:28.107Z,101041.47
2022-09-03T08:32:29.961Z,101039.53
2022-09-03T08:36:33.871Z,101046.78
2022-09-03T08:40:38.278Z,101036.13
2022-09-03T08:44:40.052Z,101054.19
2022-09-03T08:48:41.631Z,101054.38
2022-09-03T08:52:53.250Z,101052.25
2022-09-03T08:57:00.103Z,101053.44
2022-09-03T09:01:06.825Z,101054.22
2022-09-03T09:05:24.878Z,101058.13
2022-09-03T09:09:42.508Z,101052.03
2022-09-03T09:13:44.064Z,101052.22
2022-09-03T09:17:48.724Z,101045.88
2022-09-03T09:21:59.129Z,101049.16
2022-09-03T09:26:10.017Z,101050.94
2022-09-03T09:30:16.869Z,101056.09
2022-09-03T09:34:19.005Z,101054.97
2022-09-03T09:38:33.289Z,101064.28
2022-09-03T09:42:35.010Z,101064.66
2022-09-03T09:46:39.648Z,101064.13
2022-09-03T09:50:41.433Z,101058.63
2022-09-03T09:54:48.014Z,101064.44
2022-09-03T09:58:49.760Z,101073.09
2022-09-03T10:02:57.050Z,101065.91
2022-09-03T10:07:22.892Z,101063.38
2022-09-03T10:11:25.676Z,101057.00
2022-09-03T10:15:49.267Z,101054.19
2022-09-03T10:20:27.909Z,101052.97
2022-09-03T10:24:39.651Z,101054.28
2022-09-03T10:28:42.852Z,101055.31
2022-09-03T10:32:51.622Z,101042.09
2022-09-03T10:36:56.402Z,101042.63
2022-09-03T10:41:30.063Z,101035.78
2022-09-03T10:46:13.601Z,101034.84
2022-09-03T10:50:17.429Z,101033.41
2022-09-03T10:54:20.747Z,101030.56
2022-09-03T10:58:46.688Z,101025.63
2022-09-03T11:03:12.594Z,101033.19
2022-09-03T11:07:17.260Z,101028.81
2022-09-03T11:11:26.622Z,101035.06
2022-09-03T11:15:36.741Z,101034.00
2022-09-03T11:19:47.654Z,101023.72
2022-09-03T11:24:02.649Z,101024.88
2022-09-03T11:28:33.390Z,101023.09
2022-09-03T11:32:46.817Z,101018.59
2022-09-03T11:36:48.481Z,101022.47
2022-09-03T11:40:59.288Z,101018.06
2022-09-03T11:45:14.795Z,101023.84
2022-09-03T11:49:28.374Z,101019.22
2022-09-03T11:53:36.819Z,101022.03
2022-09-03T11:57:43.741Z,101020.50
2022-09-03T12:02:02.259Z,101029.94
2022-09-03T12:06:07.116Z,101025.00
2022-09-03T12:10:51.618Z,101024.84
2022-09-03T12:15:23.914Z,101021.63
2022-09-03T12:20:01.218Z,101024.13
2022-09-03T12:24:03.095Z,101028.34
2022-09-03T12:28:13.134Z,101019.25
2022-09-03T12:32:16.145Z,101025.28
2022-09-03T12:36:18.177Z,101027.19
2022-09-03T12:40:22.936Z,101021.09
2022-09-03T12:44:31.330Z,101024.50
2022-09-03T12:48:33.093Z,101022.09
2022-09-03T12:52:55.190Z,101020.03
2022-09-03T12:56:59.634Z,101011.94
2022-09-03T13:01:33.567Z,101018.78
2022-09-03T13:05:46.928Z,101011.16
2022-09-03T13:09:49.137Z,101007.19
2022-09-03T13:14:12.198Z,101009.09
2022-09-03T13:18:33.817Z,101011.34
2022-09-03T13:22:41.527Z,101000.56
2022-09-03T13:27:17.874Z,101004.75
2022-09-03T13:31:43.714Z,101000.69
2022-09-03T13:35:54.993Z,101004.06
2022-09-03T13:40:18.708Z,100998.03
2022-09-03T13:44:35.774Z,100998.59
2022-09-03T13:48:59.262Z,101003.16
2022-09-03T13:53:32.367Z,101007.78
2022-09-03T13:57:53.265Z,101002.69
2022-09-03T14:02:07.774Z,100999.53
2022-09-03T14:06:38.637Z,101002.59
2022-09-03T14:11:02.086Z,101005.06
2022-09-03T14:15:19.049Z,101010.34
2022-09-03T14:19:39.265Z,101013.88
2022-09-03T14:23:46.781Z,101012.78
2022-09-03T14:27:50.364Z,101015.34
2022-09-03T14:32:16.562Z,101012.91
2022-09-03T14:36:18.125Z,100999.84
2022-09-03T14:40:26.506Z,101002.31
2022-09-03T14:44:36.101Z,101005.34
2022-09-03T14:48:40.781Z,101008.63
2022-09-03T14:53:12.021Z,101013.66
2022-09-03T14:57:22.549Z,101018.09
2022-09-03T15:01:37.613Z,101008.56
2022-09-03T15:05:48.864Z,101013.28
2022-09-03T15:10:28.857Z,101012.47
2022-09-03T15:14:40.095Z,101018.75
2022-09-03T15:19:01.857Z,101017.41
2022-09-03T15:23:11.875Z,101017.22
2022-09-03T15:27:32.414Z,101026.28
2022-09-03T15:32:04.936Z,101019.47
2022-09-03T15:36:17.679Z,101019.47
2022-09-03T15:40:22.363Z,101023.84
2022-09-03T15:44:26.006Z,101024.66
2022-09-03T15:48:45.291Z,101019.78
2022-09-03T15:53:25.458Z,101015.94
2022-09-03T15:57:54.798Z,101016.78
2022-09-03T16:02:08.338Z,101022.25
2022-09-03T16:06:28.131Z,101015.13
2022-09-03T16:10:42.648Z,101015.63
2022-09-03T16:15:12.601Z,101019.97
2022-09-03T16:19:36.594Z,101019.66
2022-09-03T16:23:56.479Z,101024.84
2022-09-03T16:28:11.441Z,101021.53
2022-09-03T16:32:42.161Z,101022.88
2022-09-03T16:36:49.236Z,101027.75
2022-09-03T16:40:56.217Z,101019.56
2022-09-03T16:45:29.807Z,101021.53
2022-09-03T16:49:55.948Z,101012.25
2022-09-03T16:54:15.600Z,101012.75
2022-09-03T16:58:36.018Z,101015.47
2022-09-03T17:03:05.270Z,101022.22
2022-09-03T17:07:33.303Z,101013.72
2022-09-03T17:11:56.239Z,101026.25
2022-09-03T17:16:25.020Z,101023.72
2022-09-03T17:20:29.778Z,101022.25
2022-09-03T17:24:39.890Z,101029.25
2022-09-03T17:29:00.175Z,101041.72
2022-09-03T17:33:04.424Z,101038.84
2022-09-03T17:37:44.814Z,101046.91
2022-09-03T17:41:48.201Z,101052.47
2022-09-03T17:46:08.569Z,101047.34
2022-09-03T17:50:27.780Z,101048.84
2022-09-03T17:54:32.359Z,101062.09
2022-09-03T17:58:51.924Z,101071.78
2022-09-03T18:03:23.591Z,101066.75
2022-09-03T18:07:41.645Z,101073.34
2022-09-03T18:12:20.541Z,101076.44
2022-09-03T18:16:31.853Z,101077.09
2022-09-03T18:21:22.367Z,101085.69
2022-09-03T18:25:47.209Z,101086.34
2022-09-03T18:30:12.857Z,101089.69
2022-09-03T18:34:33.009Z,101098.47
2022-09-03T18:38:56.307Z,101106.22
2022-09-03T18:43:31.792Z,101120.22
2022-09-03T18:48:21.254Z,101113.50
2022-09-03T18:53:13.595Z,101125.56
2022-09-03T18:58:06.183Z,101131.63
2022-09-03T19:02:51.762Z,101130.94
2022-09-03T19:07:27.593Z,101140.03
2022-09-03T19:11:55.491Z,101148.09
2022-09-03T19:16:31.791Z,101152.13
2022-09-03T19:20:54.716Z,101158.84
2022-09-03T19:25:30.945Z,101157.69
2022-09-03T19:30:20.419Z,101158.19
2022-09-03T19:34:56.981Z,101158.03
2022-09-03T19:39:25.006Z,101163.38
2022-09-03T19:44:01.773Z,101156.38
2022-09-03T19:48:59.510Z,101161.47
2022-09-03T19:53:28.426Z,101167.84
2022-09-03T19:57:50.109Z,101162.25
2022-09-03T20:02:11.312Z,101157.72
2022-09-03T20:06:32.494Z,101163.88
2022-09-03T20:10:36.091Z,101172.75
2022-09-03T20:14:37.814Z,101175.91
2022-09-03T20:18:57.394Z,101174.72
2022-09-03T20:23:16.709Z,101175.44
2022-09-03T20:27:33.397Z,101185.34
2022-09-03T20:31:53.971Z,101183.31
2022-09-03T20:36:24.034Z,101174.19
2022-09-03T20:40:53.912Z,101178.66
2022-09-03T20:44:58.635Z,101186.44
2022-09-03T20:49:21.863Z,101182.53
2022-09-03T20:53:33.955Z,101179.66
2022-09-03T20:58:00.156Z,101189.31
2022-09-03T21:02:53.385Z,101188.59
2022-09-03T21:07:10.154Z,101198.66
2022-09-03T21:11:19.121Z,101196.72
2022-09-03T21:15:26.771Z,101192.66
2022-09-03T21:19:46.314Z,101191.91
2022-09-03T21:24:04.249Z,101194.91
2022-09-03T21:28:14.849Z,101201.25
2022-09-03T21:32:30.452Z,101200.09
2022-09-03T21:36:35.114Z,101199.94
2022-09-03T21:40:43.577Z,101202.28
2022-09-03T21:44:58.208Z,101210.66
2022-09-03T21:49:10.950Z,101210.28
2022-09-03T21:53:19.875Z,101211.78
2022-09-03T21:57:27.449Z,101220.81
2022-09-03T22:01:55.037Z,101215.66
2022-09-03T22:06:03.051Z,101210.28
2022-09-03T22:10:33.782Z,101211.81
2022-09-03T22:14:55.676Z,101216.47
2022-09-03T22:18:58.495Z,101222.78
2022-09-03T22:23:11.812Z,101220.78
2022-09-03T22:28:00.710Z,101208.06
2022-09-03T22:32:25.230Z,101219.59
2022-09-03T22:36:38.007Z,101205.00
2022-09-03T22:40:52.705Z,101215.91
2022-09-03T22:45:00.349Z,101216.75
2022-09-03T22:49:17.719Z,101212.41
2022-09-03T22:53:45.998Z,101210.53
2022-09-03T22:58:01.228Z,101223.03
2022-09-03T23:02:13.011Z,101226.38
2022-09-03T23:06:25.311Z,101224.50
2022-09-03T23:10:33.989Z,101233.03
2022-09-03T23:14:51.481Z,101234.75
2022-09-03T23:18:54.139Z,101238.50
2022-09-03T23:23:20.154Z,101241.22
2022-09-03T23:27:42.253Z,101245.59
2022-09-03T23:31:44.031Z,101248.94
2022-09-03T23:35:58.279Z,101243.13
2022-09-03T23:40:17.908Z,101245.63
2022-09-03T23:44:36.963Z,101246.91
2022-09-03T23:49:09.881Z,101245.44
2022-09-03T23:53:28.357Z,101243.56
2022-09-03T23:57:40.089Z,101251.09
